sensor_id;sensor_type;location;lat;lon;timestamp;P1;durP1;ratioP1;P2;durP2;ratioP2
22549;SDS011;11441;57.164;-2.120;2023-08-24T00:00:43;2.72;;;1.20;;
22549;SDS011;11441;57.164;-2.120;2023-08-24T00:03:10;3.92;;;1.52;;
22549;SDS011;11441;57.164;-2.120;2023-08-24T00:05:37;3.22;;;1.30;;
22549;SDS011;11441;57.164;-2.120;2023-08-24T00:08:08;4.32;;;1.13;;
22549;SDS011;11441;57.164;-2.120;2023-08-24T00:10:36;1.33;;;1.15;;
22549;SDS011;11441;57.164;-2.120;2023-08-24T00:13:03;3.28;;;1.27;;
22549;SDS011;11441;57.164;-2.120;2023-08-24T00:15:30;4.90;;;1.35;;
22549;SDS011;11441;57.164;-2.120;2023-08-24T00:17:57;2.42;;;1.08;;
22549;SDS011;11441;57.164;-2.120;2023-08-24T00:20:43;3.28;;;1.40;;
22549;SDS011;11441;57.164;-2.120;2023-08-24T00:23:09;3.67;;;1.02;;
22549;SDS011;11441;57.164;-2.120;2023-08-24T00:25:36;2.45;;;1.15;;
22549;SDS011;11441;57.164;-2.120;2023-08-24T00:28:03;4.97;;;1.58;;
22549;SDS011;11441;57.164;-2.120;2023-08-24T00:30:30;3.85;;;1.15;;
22549;SDS011;11441;57.164;-2.120;2023-08-24T00:32:57;3.28;;;1.20;;
22549;SDS011;11441;57.164;-2.120;2023-08-24T00:35:24;3.72;;;1.38;;
22549;SDS011;11441;57.164;-2.120;2023-08-24T00:37:51;2.05;;;1.33;;
22549;SDS011;11441;57.164;-2.120;2023-08-24T00:40:18;1.73;;;1.13;;
22549;SDS011;11441;57.164;-2.120;2023-08-24T00:42:46;2.35;;;1.08;;
22549;SDS011;11441;57.164;-2.120;2023-08-24T00:45:13;4.63;;;0.95;;
22549;SDS011;11441;57.164;-2.120;2023-08-24T00:47:41;4.18;;;1.50;;
22549;SDS011;11441;57.164;-2.120;2023-08-24T00:50:11;3.30;;;1.45;;
22549;SDS011;11441;57.164;-2.120;2023-08-24T00:52:40;2.35;;;1.23;;
22549;SDS011;11441;57.164;-2.120;2023-08-24T00:55:08;4.50;;;1.38;;
22549;SDS011;11441;57.164;-2.120;2023-08-24T00:57:36;4.55;;;1.30;;
22549;SDS011;11441;57.164;-2.120;2023-08-24T01:00:05;2.60;;;1.38;;
22549;SDS011;11441;57.164;-2.120;2023-08-24T01:02:34;2.25;;;1.10;;
22549;SDS011;11441;57.164;-2.120;2023-08-24T01:05:01;4.32;;;1.40;;
22549;SDS011;11441;57.164;-2.120;2023-08-24T01:07:31;3.20;;;1.65;;
22549;SDS011;11441;57.164;-2.120;2023-08-24T01:10:02;3.20;;;1.38;;
22549;SDS011;11441;57.164;-2.120;2023-08-24T01:18:22;4.75;;;1.42;;
22549;SDS011;11441;57.164;-2.120;2023-08-24T01:20:53;2.75;;;1.50;;
22549;SDS011;11441;57.164;-2.120;2023-08-24T01:26:20;4.70;;;1.73;;
22549;SDS011;11441;57.164;-2.120;2023-08-24T01:28:47;4.65;;;1.50;;
22549;SDS011;11441;57.164;-2.120;2023-08-24T01:31:14;3.25;;;1.35;;
22549;SDS011;11441;57.164;-2.120;2023-08-24T01:33:43;2.85;;;1.30;;
22549;SDS011;11441;57.164;-2.120;2023-08-24T01:36:11;4.13;;;1.25;;
22549;SDS011;11441;57.164;-2.120;2023-08-24T01:38:39;3.38;;;1.23;;
22549;SDS011;11441;57.164;-2.120;2023-08-24T01:43:49;4.18;;;1.45;;
22549;SDS011;11441;57.164;-2.120;2023-08-24T01:46:21;3.28;;;1.30;;
22549;SDS011;11441;57.164;-2.120;2023-08-24T01:48:48;2.72;;;1.05;;
22549;SDS011;11441;57.164;-2.120;2023-08-24T01:51:17;2.78;;;0.90;;
22549;SDS011;11441;57.164;-2.120;2023-08-24T01:53:46;2.30;;;1.40;;
22549;SDS011;11441;57.164;-2.120;2023-08-24T01:56:15;3.88;;;1.20;;
22549;SDS011;11441;57.164;-2.120;2023-08-24T01:58:42;2.90;;;1.05;;
22549;SDS011;11441;57.164;-2.120;2023-08-24T02:01:09;5.82;;;1.13;;
22549;SDS011;11441;57.164;-2.120;2023-08-24T02:03:39;4.00;;;1.20;;
22549;SDS011;11441;57.164;-2.120;2023-08-24T02:06:07;1.98;;;0.77;;
22549;SDS011;11441;57.164;-2.120;2023-08-24T02:08:34;6.05;;;1.30;;
22549;SDS011;11441;57.164;-2.120;2023-08-24T02:11:02;2.40;;;1.20;;
22549;SDS011;11441;57.164;-2.120;2023-08-24T02:13:31;2.33;;;1.27;;
22549;SDS011;11441;57.164;-2.120;2023-08-24T02:16:02;1.92;;;1.05;;
22549;SDS011;11441;57.164;-2.120;2023-08-24T02:18:34;1.80;;;1.00;;
22549;SDS011;11441;57.164;-2.120;2023-08-24T02:21:09;1.60;;;1.10;;
22549;SDS011;11441;57.164;-2.120;2023-08-24T02:23:39;1.48;;;0.80;;
22549;SDS011;11441;57.164;-2.120;2023-08-24T02:26:06;2.20;;;0.95;;
22549;SDS011;11441;57.164;-2.120;2023-08-24T02:28:35;1.75;;;1.05;;
22549;SDS011;11441;57.164;-2.120;2023-08-24T02:31:03;3.08;;;1.38;;
22549;SDS011;11441;57.164;-2.120;2023-08-24T02:33:31;2.00;;;1.10;;
22549;SDS011;11441;57.164;-2.120;2023-08-24T02:35:58;4.38;;;0.90;;
22549;SDS011;11441;57.164;-2.120;2023-08-24T02:38:25;2.42;;;1.10;;
22549;SDS011;11441;57.164;-2.120;2023-08-24T02:41:01;3.17;;;1.20;;
22549;SDS011;11441;57.164;-2.120;2023-08-24T02:43:33;3.70;;;1.42;;
22549;SDS011;11441;57.164;-2.120;2023-08-24T02:46:20;1.95;;;1.10;;
22549;SDS011;11441;57.164;-2.120;2023-08-24T02:48:47;4.07;;;1.35;;
22549;SDS011;11441;57.164;-2.120;2023-08-24T02:51:14;3.97;;;1.20;;
22549;SDS011;11441;57.164;-2.120;2023-08-24T02:53:41;2.13;;;1.30;;
22549;SDS011;11441;57.164;-2.120;2023-08-24T02:56:08;5.13;;;1.95;;
22549;SDS011;11441;57.164;-2.120;2023-08-24T02:58:34;4.60;;;1.17;;
22549;SDS011;11441;57.164;-2.120;2023-08-24T03:01:18;2.03;;;1.10;;
22549;SDS011;11441;57.164;-2.120;2023-08-24T03:03:45;5.05;;;1.42;;
22549;SDS011;11441;57.164;-2.120;2023-08-24T03:06:12;2.13;;;1.13;;
22549;SDS011;11441;57.164;-2.120;2023-08-24T03:08:59;2.72;;;1.30;;
22549;SDS011;11441;57.164;-2.120;2023-08-24T03:11:30;4.47;;;1.60;;
22549;SDS011;11441;57.164;-2.120;2023-08-24T03:13:57;3.42;;;1.30;;
22549;SDS011;11441;57.164;-2.120;2023-08-24T03:16:24;5.18;;;1.52;;
22549;SDS011;11441;57.164;-2.120;2023-08-24T03:18:52;6.85;;;1.65;;
22549;SDS011;11441;57.164;-2.120;2023-08-24T03:21:19;2.80;;;1.55;;
22549;SDS011;11441;57.164;-2.120;2023-08-24T03:23:46;4.30;;;1.92;;
22549;SDS011;11441;57.164;-2.120;2023-08-24T03:26:13;3.10;;;1.98;;
22549;SDS011;11441;57.164;-2.120;2023-08-24T03:28:42;5.80;;;3.00;;
22549;SDS011;11441;57.164;-2.120;2023-08-24T03:31:10;3.63;;;1.80;;
22549;SDS011;11441;57.164;-2.120;2023-08-24T03:33:37;3.28;;;2.33;;
22549;SDS011;11441;57.164;-2.120;2023-08-24T03:36:04;5.45;;;2.55;;
22549;SDS011;11441;57.164;-2.120;2023-08-24T03:38:30;10.98;;;3.38;;
22549;SDS011;11441;57.164;-2.120;2023-08-24T03:41:01;7.57;;;2.38;;
22549;SDS011;11441;57.164;-2.120;2023-08-24T03:43:33;7.03;;;3.20;;
22549;SDS011;11441;57.164;-2.120;2023-08-24T03:46:19;5.15;;;2.15;;
22549;SDS011;11441;57.164;-2.120;2023-08-24T03:48:47;4.28;;;2.30;;
22549;SDS011;11441;57.164;-2.120;2023-08-24T03:51:14;4.95;;;2.70;;
22549;SDS011;11441;57.164;-2.120;2023-08-24T03:53:41;3.42;;;2.05;;
22549;SDS011;11441;57.164;-2.120;2023-08-24T03:56:10;4.35;;;2.35;;
22549;SDS011;11441;57.164;-2.120;2023-08-24T03:58:36;4.10;;;2.35;;
22549;SDS011;11441;57.164;-2.120;2023-08-24T04:01:04;7.50;;;2.33;;
22549;SDS011;11441;57.164;-2.120;2023-08-24T04:03:33;4.00;;;2.35;;
22549;SDS011;11441;57.164;-2.120;2023-08-24T04:06:00;7.47;;;3.40;;
22549;SDS011;11441;57.164;-2.120;2023-08-24T04:08:28;8.07;;;2.25;;
22549;SDS011;11441;57.164;-2.120;2023-08-24T04:10:55;4.82;;;2.05;;
22549;SDS011;11441;57.164;-2.120;2023-08-24T04:13:23;5.25;;;2.13;;
22549;SDS011;11441;57.164;-2.120;2023-08-24T04:15:50;4.72;;;2.50;;
22549;SDS011;11441;57.164;-2.120;2023-08-24T04:18:17;5.40;;;2.70;;
22549;SDS011;11441;57.164;-2.120;2023-08-24T04:20:43;6.07;;;3.22;;
22549;SDS011;11441;57.164;-2.120;2023-08-24T04:23:12;3.17;;;2.38;;
22549;SDS011;11441;57.164;-2.120;2023-08-24T04:25:40;5.05;;;2.33;;
22549;SDS011;11441;57.164;-2.120;2023-08-24T04:28:07;5.88;;;2.63;;
22549;SDS011;11441;57.164;-2.120;2023-08-24T04:30:33;4.57;;;2.58;;
22549;SDS011;11441;57.164;-2.120;2023-08-24T04:33:00;4.70;;;2.33;;
22549;SDS011;11441;57.164;-2.120;2023-08-24T04:35:28;3.80;;;2.53;;
22549;SDS011;11441;57.164;-2.120;2023-08-24T04:37:55;4.80;;;2.25;;
22549;SDS011;11441;57.164;-2.120;2023-08-24T04:40:23;2.72;;;2.47;;
22549;SDS011;11441;57.164;-2.120;2023-08-24T04:42:49;7.22;;;2.30;;
22549;SDS011;11441;57.164;-2.120;2023-08-24T04:45:16;6.93;;;3.13;;
22549;SDS011;11441;57.164;-2.120;2023-08-24T04:47:43;2.95;;;2.75;;
22549;SDS011;11441;57.164;-2.120;2023-08-24T04:50:10;5.70;;;3.13;;
22549;SDS011;11441;57.164;-2.120;2023-08-24T04:52:37;3.80;;;2.40;;
22549;SDS011;11441;57.164;-2.120;2023-08-24T04:55:04;5.18;;;3.30;;
22549;SDS011;11441;57.164;-2.120;2023-08-24T04:57:31;4.97;;;3.83;;
22549;SDS011;11441;57.164;-2.120;2023-08-24T04:59:58;3.00;;;2.47;;
22549;SDS011;11441;57.164;-2.120;2023-08-24T05:02:25;4.72;;;3.20;;
22549;SDS011;11441;57.164;-2.120;2023-08-24T05:04:51;3.25;;;2.60;;
22549;SDS011;11441;57.164;-2.120;2023-08-24T05:07:18;5.57;;;3.10;;
22549;SDS011;11441;57.164;-2.120;2023-08-24T05:10:04;5.70;;;2.85;;
22549;SDS011;11441;57.164;-2.120;2023-08-24T05:12:31;15.63;;;3.80;;
22549;SDS011;11441;57.164;-2.120;2023-08-24T05:15:00;5.68;;;3.05;;
22549;SDS011;11441;57.164;-2.120;2023-08-24T05:17:27;7.57;;;3.58;;
22549;SDS011;11441;57.164;-2.120;2023-08-24T05:19:54;6.65;;;3.38;;
22549;SDS011;11441;57.164;-2.120;2023-08-24T05:22:21;3.33;;;2.53;;
22549;SDS011;11441;57.164;-2.120;2023-08-24T05:24:48;6.18;;;3.70;;
22549;SDS011;11441;57.164;-2.120;2023-08-24T05:27:15;4.32;;;2.92;;
22549;SDS011;11441;57.164;-2.120;2023-08-24T05:29:42;3.17;;;2.88;;
22549;SDS011;11441;57.164;-2.120;2023-08-24T05:32:09;4.93;;;3.25;;
22549;SDS011;11441;57.164;-2.120;2023-08-24T05:34:36;4.05;;;3.63;;
22549;SDS011;11441;57.164;-2.120;2023-08-24T05:37:03;4.70;;;3.38;;
22549;SDS011;11441;57.164;-2.120;2023-08-24T05:39:30;3.10;;;2.80;;
22549;SDS011;11441;57.164;-2.120;2023-08-24T05:41:56;4.35;;;2.60;;
22549;SDS011;11441;57.164;-2.120;2023-08-24T05:44:23;3.70;;;2.65;;
22549;SDS011;11441;57.164;-2.120;2023-08-24T05:46:50;2.08;;;1.83;;
22549;SDS011;11441;57.164;-2.120;2023-08-24T05:49:17;2.38;;;1.33;;
22549;SDS011;11441;57.164;-2.120;2023-08-24T05:51:44;3.25;;;1.02;;
22549;SDS011;11441;57.164;-2.120;2023-08-24T05:54:11;2.33;;;1.02;;
22549;SDS011;11441;57.164;-2.120;2023-08-24T05:56:57;2.13;;;0.60;;
22549;SDS011;11441;57.164;-2.120;2023-08-24T05:59:27;1.67;;;0.60;;
22549;SDS011;11441;57.164;-2.120;2023-08-24T06:02:12;1.73;;;0.60;;
22549;SDS011;11441;57.164;-2.120;2023-08-24T06:04:39;7.45;;;0.75;;
22549;SDS011;11441;57.164;-2.120;2023-08-24T06:07:05;1.30;;;0.55;;
22549;SDS011;11441;57.164;-2.120;2023-08-24T06:09:32;0.52;;;0.50;;
22549;SDS011;11441;57.164;-2.120;2023-08-24T06:11:59;1.88;;;0.50;;
22549;SDS011;11441;57.164;-2.120;2023-08-24T06:14:26;3.10;;;0.80;;
22549;SDS011;11441;57.164;-2.120;2023-08-24T06:16:52;3.08;;;1.17;;
22549;SDS011;11441;57.164;-2.120;2023-08-24T06:19:19;2.00;;;0.65;;
22549;SDS011;11441;57.164;-2.120;2023-08-24T06:21:46;1.05;;;0.50;;
22549;SDS011;11441;57.164;-2.120;2023-08-24T06:24:31;3.15;;;0.80;;
22549;SDS011;11441;57.164;-2.120;2023-08-24T06:26:58;1.77;;;0.80;;
22549;SDS011;11441;57.164;-2.120;2023-08-24T06:29:25;2.45;;;1.02;;
22549;SDS011;11441;57.164;-2.120;2023-08-24T06:31:53;1.20;;;0.73;;
22549;SDS011;11441;57.164;-2.120;2023-08-24T06:34:21;3.25;;;1.10;;
22549;SDS011;11441;57.164;-2.120;2023-08-24T06:36:50;2.10;;;1.20;;
22549;SDS011;11441;57.164;-2.120;2023-08-24T06:42:03;2.20;;;0.85;;
22549;SDS011;11441;57.164;-2.120;2023-08-24T06:44:30;4.38;;;1.08;;
22549;SDS011;11441;57.164;-2.120;2023-08-24T06:46:57;1.60;;;1.00;;
22549;SDS011;11441;57.164;-2.120;2023-08-24T06:49:23;1.42;;;0.80;;
22549;SDS011;11441;57.164;-2.120;2023-08-24T06:51:50;1.45;;;0.98;;
22549;SDS011;11441;57.164;-2.120;2023-08-24T06:54:17;1.13;;;0.85;;
22549;SDS011;11441;57.164;-2.120;2023-08-24T06:56:44;2.38;;;0.90;;
22549;SDS011;11441;57.164;-2.120;2023-08-24T06:59:11;2.90;;;0.98;;
22549;SDS011;11441;57.164;-2.120;2023-08-24T07:01:39;1.73;;;0.80;;
22549;SDS011;11441;57.164;-2.120;2023-08-24T07:04:07;1.73;;;1.00;;
22549;SDS011;11441;57.164;-2.120;2023-08-24T07:06:34;1.67;;;0.90;;
22549;SDS011;11441;57.164;-2.120;2023-08-24T07:09:01;2.75;;;1.20;;
22549;SDS011;11441;57.164;-2.120;2023-08-24T07:11:50;2.72;;;1.33;;
22549;SDS011;11441;57.164;-2.120;2023-08-24T07:14:16;1.63;;;1.27;;
22549;SDS011;11441;57.164;-2.120;2023-08-24T07:16:44;1.33;;;1.05;;
22549;SDS011;11441;57.164;-2.120;2023-08-24T07:19:10;1.52;;;1.40;;
22549;SDS011;11441;57.164;-2.120;2023-08-24T07:21:37;2.45;;;1.05;;
22549;SDS011;11441;57.164;-2.120;2023-08-24T07:24:04;2.58;;;1.30;;
22549;SDS011;11441;57.164;-2.120;2023-08-24T07:26:31;1.88;;;1.35;;
22549;SDS011;11441;57.164;-2.120;2023-08-24T07:29:00;2.45;;;1.23;;
22549;SDS011;11441;57.164;-2.120;2023-08-24T07:31:26;1.85;;;1.42;;
22549;SDS011;11441;57.164;-2.120;2023-08-24T07:33:53;2.03;;;1.38;;
22549;SDS011;11441;57.164;-2.120;2023-08-24T07:36:39;1.55;;;1.30;;
22549;SDS011;11441;57.164;-2.120;2023-08-24T07:39:05;1.65;;;1.17;;
22549;SDS011;11441;57.164;-2.120;2023-08-24T07:41:33;1.40;;;0.90;;
22549;SDS011;11441;57.164;-2.120;2023-08-24T07:44:00;2.60;;;1.20;;
22549;SDS011;11441;57.164;-2.120;2023-08-24T07:46:27;1.25;;;1.00;;
22549;SDS011;11441;57.164;-2.120;2023-08-24T07:49:11;2.67;;;0.93;;
22549;SDS011;11441;57.164;-2.120;2023-08-24T07:51:38;2.40;;;0.93;;
22549;SDS011;11441;57.164;-2.120;2023-08-24T07:54:04;1.38;;;1.23;;
22549;SDS011;11441;57.164;-2.120;2023-08-24T07:56:33;1.42;;;1.25;;
22549;SDS011;11441;57.164;-2.120;2023-08-24T07:59:00;2.05;;;1.58;;
22549;SDS011;11441;57.164;-2.120;2023-08-24T08:01:27;1.85;;;1.02;;
22549;SDS011;11441;57.164;-2.120;2023-08-24T08:03:54;4.88;;;1.30;;
22549;SDS011;11441;57.164;-2.120;2023-08-24T08:06:21;1.17;;;0.95;;
22549;SDS011;11441;57.164;-2.120;2023-08-24T08:08:48;1.17;;;1.02;;
22549;SDS011;11441;57.164;-2.120;2023-08-24T08:11:17;1.60;;;1.00;;
22549;SDS011;11441;57.164;-2.120;2023-08-24T08:13:44;2.28;;;1.27;;
22549;SDS011;11441;57.164;-2.120;2023-08-24T08:16:11;1.88;;;1.10;;
22549;SDS011;11441;57.164;-2.120;2023-08-24T08:18:38;1.58;;;0.95;;
22549;SDS011;11441;57.164;-2.120;2023-08-24T08:21:09;1.10;;;0.95;;
22549;SDS011;11441;57.164;-2.120;2023-08-24T08:23:38;1.60;;;1.10;;
22549;SDS011;11441;57.164;-2.120;2023-08-24T08:26:05;1.35;;;0.93;;
22549;SDS011;11441;57.164;-2.120;2023-08-24T08:28:32;3.10;;;0.88;;
22549;SDS011;11441;57.164;-2.120;2023-08-24T08:31:01;1.30;;;1.20;;
22549;SDS011;11441;57.164;-2.120;2023-08-24T08:33:29;1.83;;;1.20;;
22549;SDS011;11441;57.164;-2.120;2023-08-24T08:35:56;1.08;;;1.00;;
22549;SDS011;11441;57.164;-2.120;2023-08-24T08:38:23;1.83;;;0.90;;
22549;SDS011;11441;57.164;-2.120;2023-08-24T08:41:02;2.13;;;1.25;;
22549;SDS011;11441;57.164;-2.120;2023-08-24T08:43:30;0.70;;;0.63;;
22549;SDS011;11441;57.164;-2.120;2023-08-24T08:45:57;0.93;;;0.82;;
22549;SDS011;11441;57.164;-2.120;2023-08-24T08:48:27;1.23;;;0.73;;
22549;SDS011;11441;57.164;-2.120;2023-08-24T08:50:57;1.45;;;0.90;;
22549;SDS011;11441;57.164;-2.120;2023-08-24T08:53:24;2.70;;;1.20;;
22549;SDS011;11441;57.164;-2.120;2023-08-24T08:55:51;2.15;;;1.35;;
22549;SDS011;11441;57.164;-2.120;2023-08-24T08:58:20;2.67;;;0.85;;
22549;SDS011;11441;57.164;-2.120;2023-08-24T09:00:48;0.85;;;0.75;;
22549;SDS011;11441;57.164;-2.120;2023-08-24T09:03:17;5.78;;;1.27;;
22549;SDS011;11441;57.164;-2.120;2023-08-24T09:05:45;0.80;;;0.77;;
22549;SDS011;11441;57.164;-2.120;2023-08-24T09:11:00;2.28;;;0.85;;
22549;SDS011;11441;57.164;-2.120;2023-08-24T09:13:29;0.40;;;0.40;;
22549;SDS011;11441;57.164;-2.120;2023-08-24T09:16:03;0.75;;;0.60;;
22549;SDS011;11441;57.164;-2.120;2023-08-24T09:18:37;0.45;;;0.40;;
22549;SDS011;11441;57.164;-2.120;2023-08-24T09:21:11;0.75;;;0.30;;
22549;SDS011;11441;57.164;-2.120;2023-08-24T09:23:43;0.88;;;0.40;;
22549;SDS011;11441;57.164;-2.120;2023-08-24T09:26:12;0.57;;;0.30;;
22549;SDS011;11441;57.164;-2.120;2023-08-24T09:28:41;0.20;;;0.20;;
22549;SDS011;11441;57.164;-2.120;2023-08-24T09:31:11;0.20;;;0.20;;
22549;SDS011;11441;57.164;-2.120;2023-08-24T09:33:38;1.60;;;0.30;;
22549;SDS011;11441;57.164;-2.120;2023-08-24T09:36:05;0.20;;;0.20;;
22549;SDS011;11441;57.164;-2.120;2023-08-24T09:38:33;0.45;;;0.25;;
22549;SDS011;11441;57.164;-2.120;2023-08-24T09:41:02;0.88;;;0.30;;
22549;SDS011;11441;57.164;-2.120;2023-08-24T09:43:30;2.00;;;0.32;;
22549;SDS011;11441;57.164;-2.120;2023-08-24T09:45:57;1.48;;;0.40;;
22549;SDS011;11441;57.164;-2.120;2023-08-24T09:48:25;1.27;;;0.52;;
22549;SDS011;11441;57.164;-2.120;2023-08-24T09:50:55;1.30;;;0.30;;
22549;SDS011;11441;57.164;-2.120;2023-08-24T09:53:23;0.90;;;0.35;;
22549;SDS011;11441;57.164;-2.120;2023-08-24T09:58:27;1.25;;;0.50;;
22549;SDS011;11441;57.164;-2.120;2023-08-24T10:00:54;0.52;;;0.25;;
22549;SDS011;11441;57.164;-2.120;2023-08-24T10:03:25;0.82;;;0.30;;
22549;SDS011;11441;57.164;-2.120;2023-08-24T10:05:54;0.82;;;0.30;;
22549;SDS011;11441;57.164;-2.120;2023-08-24T10:08:42;0.40;;;0.15;;
22549;SDS011;11441;57.164;-2.120;2023-08-24T10:11:13;0.50;;;0.28;;
22549;SDS011;11441;57.164;-2.120;2023-08-24T10:16:33;2.70;;;0.32;;
22549;SDS011;11441;57.164;-2.120;2023-08-24T10:19:02;0.90;;;0.25;;
22549;SDS011;11441;57.164;-2.120;2023-08-24T10:21:30;1.95;;;0.43;;
22549;SDS011;11441;57.164;-2.120;2023-08-24T10:23:57;0.17;;;0.17;;
22549;SDS011;11441;57.164;-2.120;2023-08-24T10:26:42;1.13;;;0.20;;
22549;SDS011;11441;57.164;-2.120;2023-08-24T10:29:10;1.10;;;0.28;;
22549;SDS011;11441;57.164;-2.120;2023-08-24T10:31:37;0.47;;;0.15;;
22549;SDS011;11441;57.164;-2.120;2023-08-24T10:34:07;0.43;;;0.10;;
22549;SDS011;11441;57.164;-2.120;2023-08-24T10:36:35;4.00;;;0.60;;
22549;SDS011;11441;57.164;-2.120;2023-08-24T10:39:05;0.35;;;0.28;;
22549;SDS011;11441;57.164;-2.120;2023-08-24T10:41:48;0.82;;;0.10;;
22549;SDS011;11441;57.164;-2.120;2023-08-24T10:44:36;1.10;;;0.30;;
22549;SDS011;11441;57.164;-2.120;2023-08-24T10:49:34;0.70;;;0.20;;
22549;SDS011;11441;57.164;-2.120;2023-08-24T10:55:21;0.30;;;0.30;;
22549;SDS011;11441;57.164;-2.120;2023-08-24T10:57:55;0.30;;;0.20;;
22549;SDS011;11441;57.164;-2.120;2023-08-24T11:00:27;0.20;;;0.20;;
22549;SDS011;11441;57.164;-2.120;2023-08-24T11:02:56;1.80;;;0.38;;
22549;SDS011;11441;57.164;-2.120;2023-08-24T11:13:09;0.65;;;0.55;;
22549;SDS011;11441;57.164;-2.120;2023-08-24T11:18:12;0.50;;;0.30;;
22549;SDS011;11441;57.164;-2.120;2023-08-24T11:20:49;0.82;;;0.20;;
22549;SDS011;11441;57.164;-2.120;2023-08-24T11:23:18;0.43;;;0.30;;
22549;SDS011;11441;57.164;-2.120;2023-08-24T11:25:46;0.40;;;0.20;;
22549;SDS011;11441;57.164;-2.120;2023-08-24T11:28:17;0.30;;;0.10;;
22549;SDS011;11441;57.164;-2.120;2023-08-24T11:30:46;0.10;;;0.10;;
22549;SDS011;11441;57.164;-2.120;2023-08-24T11:33:13;0.20;;;0.20;;
22549;SDS011;11441;57.164;-2.120;2023-08-24T11:35:42;0.38;;;0.30;;
22549;SDS011;11441;57.164;-2.120;2023-08-24T11:38:09;0.30;;;0.25;;
22549;SDS011;11441;57.164;-2.120;2023-08-24T11:40:38;0.47;;;0.17;;
22549;SDS011;11441;57.164;-2.120;2023-08-24T11:43:05;1.33;;;0.20;;
22549;SDS011;11441;57.164;-2.120;2023-08-24T11:45:33;0.25;;;0.20;;
22549;SDS011;11441;57.164;-2.120;2023-08-24T11:48:03;0.20;;;0.20;;
22549;SDS011;11441;57.164;-2.120;2023-08-24T11:50:32;0.73;;;0.10;;
22549;SDS011;11441;57.164;-2.120;2023-08-24T11:53:19;1.13;;;0.38;;
22549;SDS011;11441;57.164;-2.120;2023-08-24T11:55:46;0.95;;;0.20;;
22549;SDS011;11441;57.164;-2.120;2023-08-24T11:58:31;0.25;;;0.20;;
22549;SDS011;11441;57.164;-2.120;2023-08-24T12:00:58;0.50;;;0.10;;
22549;SDS011;11441;57.164;-2.120;2023-08-24T12:03:25;0.22;;;0.10;;
22549;SDS011;11441;57.164;-2.120;2023-08-24T12:05:52;0.22;;;0.20;;
22549;SDS011;11441;57.164;-2.120;2023-08-24T12:08:19;0.52;;;0.20;;
22549;SDS011;11441;57.164;-2.120;2023-08-24T12:10:46;1.25;;;0.28;;
22549;SDS011;11441;57.164;-2.120;2023-08-24T12:13:13;0.28;;;0.13;;
22549;SDS011;11441;57.164;-2.120;2023-08-24T12:15:40;3.10;;;0.40;;
22549;SDS011;11441;57.164;-2.120;2023-08-24T12:18:12;0.20;;;0.20;;
22549;SDS011;11441;57.164;-2.120;2023-08-24T12:20:40;1.02;;;0.32;;
22549;SDS011;11441;57.164;-2.120;2023-08-24T12:23:10;0.22;;;0.20;;
22549;SDS011;11441;57.164;-2.120;2023-08-24T12:25:39;0.40;;;0.25;;
22549;SDS011;11441;57.164;-2.120;2023-08-24T12:28:09;1.20;;;0.30;;
22549;SDS011;11441;57.164;-2.120;2023-08-24T12:30:48;1.25;;;0.32;;
22549;SDS011;11441;57.164;-2.120;2023-08-24T12:33:25;0.60;;;0.30;;
22549;SDS011;11441;57.164;-2.120;2023-08-24T12:35:54;0.85;;;0.40;;
22549;SDS011;11441;57.164;-2.120;2023-08-24T12:38:22;0.63;;;0.30;;
22549;SDS011;11441;57.164;-2.120;2023-08-24T12:40:50;0.30;;;0.20;;
22549;SDS011;11441;57.164;-2.120;2023-08-24T12:43:18;0.40;;;0.20;;
22549;SDS011;11441;57.164;-2.120;2023-08-24T12:45:45;0.55;;;0.20;;
22549;SDS011;11441;57.164;-2.120;2023-08-24T12:48:11;1.40;;;0.25;;
22549;SDS011;11441;57.164;-2.120;2023-08-24T12:50:38;1.83;;;0.40;;
22549;SDS011;11441;57.164;-2.120;2023-08-24T12:53:05;0.52;;;0.20;;
22549;SDS011;11441;57.164;-2.120;2023-08-24T12:55:33;0.10;;;0.10;;
22549;SDS011;11441;57.164;-2.120;2023-08-24T12:58:00;0.30;;;0.20;;
22549;SDS011;11441;57.164;-2.120;2023-08-24T13:00:27;1.35;;;0.50;;
22549;SDS011;11441;57.164;-2.120;2023-08-24T13:02:55;1.42;;;0.40;;
22549;SDS011;11441;57.164;-2.120;2023-08-24T13:05:22;0.60;;;0.20;;
22549;SDS011;11441;57.164;-2.120;2023-08-24T13:07:49;0.98;;;0.30;;
22549;SDS011;11441;57.164;-2.120;2023-08-24T13:10:17;0.45;;;0.45;;
22549;SDS011;11441;57.164;-2.120;2023-08-24T13:12:44;0.20;;;0.10;;
22549;SDS011;11441;57.164;-2.120;2023-08-24T13:15:11;5.25;;;0.73;;
22549;SDS011;11441;57.164;-2.120;2023-08-24T13:17:38;0.45;;;0.20;;
22549;SDS011;11441;57.164;-2.120;2023-08-24T13:20:05;0.43;;;0.28;;
22549;SDS011;11441;57.164;-2.120;2023-08-24T13:22:33;1.83;;;0.45;;
22549;SDS011;11441;57.164;-2.120;2023-08-24T13:25:00;0.98;;;0.30;;
22549;SDS011;11441;57.164;-2.120;2023-08-24T13:27:27;2.40;;;0.35;;
22549;SDS011;11441;57.164;-2.120;2023-08-24T13:29:53;0.20;;;0.20;;
22549;SDS011;11441;57.164;-2.120;2023-08-24T13:32:23;1.65;;;0.35;;
22549;SDS011;11441;57.164;-2.120;2023-08-24T13:34:50;0.52;;;0.30;;
22549;SDS011;11441;57.164;-2.120;2023-08-24T13:37:17;1.83;;;0.63;;
22549;SDS011;11441;57.164;-2.120;2023-08-24T13:39:44;1.95;;;0.30;;
22549;SDS011;11441;57.164;-2.120;2023-08-24T13:42:11;0.28;;;0.20;;
22549;SDS011;11441;57.164;-2.120;2023-08-24T13:44:39;0.90;;;0.20;;
22549;SDS011;11441;57.164;-2.120;2023-08-24T13:47:06;1.00;;;0.20;;
22549;SDS011;11441;57.164;-2.120;2023-08-24T13:49:51;0.95;;;0.32;;
22549;SDS011;11441;57.164;-2.120;2023-08-24T13:52:18;0.93;;;0.20;;
22549;SDS011;11441;57.164;-2.120;2023-08-24T13:54:45;2.78;;;0.30;;
22549;SDS011;11441;57.164;-2.120;2023-08-24T13:57:21;1.52;;;0.30;;
22549;SDS011;11441;57.164;-2.120;2023-08-24T13:59:48;2.30;;;0.38;;
22549;SDS011;11441;57.164;-2.120;2023-08-24T14:02:15;0.75;;;0.40;;
22549;SDS011;11441;57.164;-2.120;2023-08-24T14:04:42;0.85;;;0.20;;
22549;SDS011;11441;57.164;-2.120;2023-08-24T14:07:09;0.50;;;0.20;;
22549;SDS011;11441;57.164;-2.120;2023-08-24T14:09:36;0.30;;;0.20;;
22549;SDS011;11441;57.164;-2.120;2023-08-24T14:12:02;2.97;;;0.38;;
22549;SDS011;11441;57.164;-2.120;2023-08-24T14:14:29;0.98;;;0.20;;
22549;SDS011;11441;57.164;-2.120;2023-08-24T14:16:56;0.10;;;0.10;;
22549;SDS011;11441;57.164;-2.120;2023-08-24T14:19:24;0.60;;;0.30;;
22549;SDS011;11441;57.164;-2.120;2023-08-24T14:21:52;0.25;;;0.10;;
22549;SDS011;11441;57.164;-2.120;2023-08-24T14:24:37;3.58;;;0.47;;
22549;SDS011;11441;57.164;-2.120;2023-08-24T14:27:04;1.77;;;0.30;;
22549;SDS011;11441;57.164;-2.120;2023-08-24T14:29:31;1.05;;;0.22;;
22549;SDS011;11441;57.164;-2.120;2023-08-24T14:31:58;0.35;;;0.20;;
22549;SDS011;11441;57.164;-2.120;2023-08-24T14:34:25;1.70;;;0.38;;
22549;SDS011;11441;57.164;-2.120;2023-08-24T14:36:52;0.80;;;0.30;;
22549;SDS011;11441;57.164;-2.120;2023-08-24T14:39:19;1.05;;;0.17;;
22549;SDS011;11441;57.164;-2.120;2023-08-24T14:41:46;1.17;;;0.52;;
22549;SDS011;11441;57.164;-2.120;2023-08-24T14:46:58;0.43;;;0.30;;
22549;SDS011;11441;57.164;-2.120;2023-08-24T14:49:25;0.30;;;0.30;;
22549;SDS011;11441;57.164;-2.120;2023-08-24T14:51:52;2.22;;;0.40;;
22549;SDS011;11441;57.164;-2.120;2023-08-24T14:54:19;0.52;;;0.43;;
22549;SDS011;11441;57.164;-2.120;2023-08-24T14:56:46;1.17;;;0.60;;
22549;SDS011;11441;57.164;-2.120;2023-08-24T14:59:13;1.35;;;0.40;;
22549;SDS011;11441;57.164;-2.120;2023-08-24T15:01:39;1.05;;;0.20;;
22549;SDS011;11441;57.164;-2.120;2023-08-24T15:04:06;2.38;;;0.88;;
22549;SDS011;11441;57.164;-2.120;2023-08-24T15:06:33;0.20;;;0.20;;
22549;SDS011;11441;57.164;-2.120;2023-08-24T15:09:00;1.35;;;0.17;;
22549;SDS011;11441;57.164;-2.120;2023-08-24T15:11:27;0.20;;;0.20;;
22549;SDS011;11441;57.164;-2.120;2023-08-24T15:13:54;0.75;;;0.30;;
22549;SDS011;11441;57.164;-2.120;2023-08-24T15:16:21;0.30;;;0.20;;
22549;SDS011;11441;57.164;-2.120;2023-08-24T15:18:48;1.08;;;0.40;;
22549;SDS011;11441;57.164;-2.120;2023-08-24T15:21:14;0.28;;;0.17;;
22549;SDS011;11441;57.164;-2.120;2023-08-24T15:23:41;1.65;;;0.20;;